Time;durP1;ratioP1;P1;durP2;ratioP2;P2;SDS_P1;SDS_P2;PMS_P1;PMS_P2;Temp;Humidity;BMP_temperature;BMP_pressure;BME280_temperature;BME280_humidity;BME280_pressure;Samples;Min_cycle;Max_cycle;Signal;HPM_P1;HPM_P2
2021/06/16 00:02:01;;;;;;;4.38;3.25;;;23.90;59.00;;;;;;5241326;28;20048;-52
2021/06/16 00:04:34;;;;;;;4.70;3.13;;;23.90;59.00;;;;;;5244740;28;20420;-52
2021/06/16 00:07:06;;;;;;;4.85;3.47;;;23.90;59.20;;;;;;5247101;28;20547;-52
2021/06/16 00:09:39;;;;;;;4.18;3.53;;;23.90;59.00;;;;;;5231363;28;20055;-55
2021/06/16 00:12:12;;;;;;;4.43;3.45;;;23.90;59.00;;;;;;5244088;28;20567;-51
2021/06/16 00:14:45;;;;;;;5.00;3.13;;;23.90;59.10;;;;;;5232270;28;20051;-52
2021/06/16 00:17:17;;;;;;;6.63;3.92;;;23.90;59.10;;;;;;5238193;28;20060;-50
2021/06/16 00:19:50;;;;;;;5.40;3.97;;;23.90;59.20;;;;;;5238798;28;20777;-50
2021/06/16 00:22:22;;;;;;;6.27;3.80;;;23.90;59.10;;;;;;5245303;28;20052;-50
2021/06/16 00:24:55;;;;;;;6.00;3.70;;;23.90;59.20;;;;;;5229342;28;20307;-52
2021/06/16 00:27:28;;;;;;;6.73;3.80;;;23.90;59.20;;;;;;5226280;28;20048;-51
2021/06/16 00:30:00;;;;;;;5.27;3.90;;;23.90;59.20;;;;;;5228865;28;20416;-48
2021/06/16 00:32:33;;;;;;;4.37;3.47;;;23.90;59.30;;;;;;5243251;28;20044;-53
2021/06/16 00:35:07;;;;;;;6.50;3.60;;;23.90;59.20;;;;;;5246470;28;20416;-52
2021/06/16 00:37:40;;;;;;;7.60;3.28;;;23.90;59.20;;;;;;5226439;28;20067;-53
2021/06/16 00:40:15;;;;;;;5.57;3.45;;;23.90;59.20;;;;;;5246683;28;20056;-49
2021/06/16 00:42:48;;;;;;;6.22;3.72;;;23.90;59.20;;;;;;5246792;28;20603;-50
2021/06/16 00:45:21;;;;;;;5.70;3.60;;;23.90;59.20;;;;;;5246007;28;20048;-52
2021/06/16 00:47:57;;;;;;;6.38;3.83;;;23.90;59.10;;;;;;5240314;28;20044;-49
2021/06/16 00:50:33;;;;;;;6.00;3.40;;;23.90;59.20;;;;;;5245823;28;20056;-48
2021/06/16 00:53:07;;;;;;;6.32;3.50;;;23.90;59.10;;;;;;5250019;28;20044;-52
2021/06/16 00:55:39;;;;;;;5.10;3.22;;;23.90;59.10;;;;;;5251803;28;20059;-50
2021/06/16 00:58:12;;;;;;;9.23;3.70;;;23.90;59.20;;;;;;5251701;28;20075;-54
2021/06/16 01:01:13;;;;;;;6.63;3.42;;;23.90;59.20;;;;;;5246476;28;20420;-53
2021/06/16 01:03:54;;;;;;;6.32;3.42;;;23.90;59.10;;;;;;5246406;28;20048;-56
2021/06/16 01:06:40;;;;;;;5.57;3.60;;;23.90;59.10;;;;;;5250357;28;20052;-48
2021/06/16 01:09:32;;;;;;;7.32;3.78;;;23.90;59.20;;;;;;5249215;28;20063;-48
2021/06/16 01:12:24;;;;;;;4.65;3.80;;;23.90;59.10;;;;;;5247597;28;20076;-51
2021/06/16 01:15:11;;;;;;;6.55;3.25;;;23.90;59.20;;;;;;5249515;28;20056;-55
2021/06/16 01:17:52;;;;;;;8.13;3.53;;;23.90;59.20;;;;;;5250164;28;20054;-52
2021/06/16 01:20:38;;;;;;;7.32;3.75;;;23.80;59.10;;;;;;5234360;28;20528;-53
2021/06/16 01:23:30;;;;;;;6.40;3.60;;;23.90;59.20;;;;;;5252506;28;20063;-53
2021/06/16 01:26:02;;;;;;;5.97;2.90;;;23.80;59.10;;;;;;5252752;28;20052;-50
2021/06/16 01:28:41;;;;;;;6.25;3.20;;;23.80;59.10;;;;;;5245711;28;20052;-49
2021/06/16 01:31:18;;;;;;;5.93;3.78;;;23.80;59.10;;;;;;5247799;28;20339;-46
2021/06/16 01:33:52;;;;;;;5.30;3.30;;;23.80;59.10;;;;;;5247220;28;20067;-50
2021/06/16 01:36:27;;;;;;;9.23;3.45;;;23.80;59.10;;;;;;5241965;28;20055;-50
2021/06/16 01:39:01;;;;;;;5.70;3.90;;;23.80;59.10;;;;;;5250014;28;20051;-51
2021/06/16 01:41:34;;;;;;;5.68;3.70;;;23.80;59.00;;;;;;5233007;28;20049;-50
2021/06/16 01:44:08;;;;;;;5.03;3.38;;;23.80;59.10;;;;;;5249980;28;20047;-51
2021/06/16 01:46:43;;;;;;;6.50;3.58;;;23.80;59.10;;;;;;5245889;28;20570;-52
2021/06/16 01:49:17;;;;;;;8.63;3.92;;;23.80;59.10;;;;;;5245286;28;20059;-51
2021/06/16 01:51:50;;;;;;;6.57;3.33;;;23.80;59.00;;;;;;5228825;28;20052;-53
2021/06/16 01:54:24;;;;;;;5.68;3.53;;;23.80;59.00;;;;;;5241955;28;20055;-51
2021/06/16 01:56:58;;;;;;;8.45;3.30;;;23.80;59.00;;;;;;5249197;28;20061;-50
2021/06/16 01:59:32;;;;;;;7.43;3.15;;;23.80;59.00;;;;;;5247238;28;20045;-47
2021/06/16 02:02:05;;;;;;;5.38;3.92;;;23.80;59.00;;;;;;5243382;28;20408;-49
2021/06/16 02:04:38;;;;;;;4.00;3.30;;;23.90;59.00;;;;;;5249467;28;20075;-53
2021/06/16 02:07:18;;;;;;;4.50;3.38;;;23.80;58.90;;;;;;5250355;28;20047;-50
2021/06/16 02:09:53;;;;;;;5.30;3.35;;;23.90;59.00;;;;;;5249748;28;20523;-52
2021/06/16 02:12:27;;;;;;;6.45;3.83;;;23.80;59.00;;;;;;5247745;28;20056;-47
2021/06/16 02:15:12;;;;;;;7.43;3.70;;;23.80;59.00;;;;;;5246132;28;20055;-52
2021/06/16 02:17:51;;;;;;;3.13;2.83;;;23.80;58.90;;;;;;5248840;28;20060;-52
2021/06/16 02:20:23;;;;;;;5.20;3.67;;;23.80;58.90;;;;;;5229407;28;20051;-50
2021/06/16 02:22:56;;;;;;;4.90;3.00;;;23.80;59.00;;;;;;5242349;28;20044;-54
2021/06/16 02:25:29;;;;;;;3.75;3.35;;;23.80;59.00;;;;;;5248258;28;20071;-50
2021/06/16 02:28:02;;;;;;;8.18;3.63;;;23.80;59.00;;;;;;5248167;28;20052;-50
2021/06/16 02:30:35;;;;;;;6.53;2.97;;;23.80;59.00;;;;;;5251075;28;20048;-50
2021/06/16 02:33:07;;;;;;;4.97;3.63;;;23.80;59.00;;;;;;5230084;28;20520;-49
2021/06/16 02:35:40;;;;;;;4.90;3.10;;;23.80;59.00;;;;;;5249579;28;20448;-49
2021/06/16 02:38:15;;;;;;;4.97;3.40;;;23.80;59.00;;;;;;5250126;28;20055;-49
2021/06/16 02:40:48;;;;;;;5.90;3.20;;;23.80;59.00;;;;;;5251942;28;20052;-52
2021/06/16 02:43:21;;;;;;;3.90;3.00;;;23.80;59.00;;;;;;5244117;28;20051;-55
2021/06/16 02:45:55;;;;;;;7.10;3.63;;;23.80;59.00;;;;;;5246355;28;20071;-53
2021/06/16 02:48:29;;;;;;;3.97;3.38;;;23.80;59.00;;;;;;5244716;28;20052;-53
2021/06/16 02:51:02;;;;;;;7.30;3.38;;;23.80;59.00;;;;;;5245995;28;20060;-54
2021/06/16 02:53:35;;;;;;;8.23;3.65;;;23.80;59.00;;;;;;5248352;28;20440;-50
2021/06/16 02:56:09;;;;;;;8.68;3.70;;;23.80;59.00;;;;;;5247012;28;20052;-52
2021/06/16 02:58:46;;;;;;;5.93;3.20;;;23.80;59.00;;;;;;5254775;28;20055;-52
2021/06/16 03:01:20;;;;;;;9.70;3.38;;;23.80;59.00;;;;;;5254264;28;20048;-50
2021/06/16 03:03:53;;;;;;;4.25;3.25;;;23.80;59.00;;;;;;5249783;28;20052;-50
2021/06/16 03:06:27;;;;;;;7.13;3.33;;;23.80;59.00;;;;;;5251534;28;20055;-51
2021/06/16 03:09:01;;;;;;;5.47;3.42;;;23.80;59.00;;;;;;5242475;28;20036;-50
2021/06/16 03:11:34;;;;;;;5.95;3.03;;;23.80;59.00;;;;;;5248929;28;20389;-47
2021/06/16 03:14:07;;;;;;;4.28;3.08;;;23.80;59.00;;;;;;5243752;28;20048;-54
2021/06/16 03:16:41;;;;;;;4.60;3.40;;;23.80;58.90;;;;;;5244926;28;20036;-52
2021/06/16 03:19:14;;;;;;;5.28;3.47;;;23.80;59.00;;;;;;5242873;28;20776;-52
2021/06/16 03:21:47;;;;;;;4.22;3.33;;;23.80;59.00;;;;;;5247275;28;20057;-53
2021/06/16 03:24:22;;;;;;;10.20;3.28;;;23.70;58.90;;;;;;5246434;28;20678;-51
2021/06/16 03:26:56;;;;;;;5.30;3.97;;;23.80;58.90;;;;;;5244919;28;20365;-51
2021/06/16 03:29:35;;;;;;;6.10;3.65;;;23.70;59.60;;;;;;5240896;28;20935;-50
2021/06/16 03:32:10;;;;;;;5.50;3.38;;;23.70;58.90;;;;;;5241205;28;20059;-50
2021/06/16 03:34:43;;;;;;;5.63;3.20;;;23.80;58.90;;;;;;5242531;28;20052;-50
2021/06/16 03:37:16;;;;;;;5.72;3.10;;;23.80;59.10;;;;;;5242252;28;20520;-52
2021/06/16 03:39:51;;;;;;;5.53;3.30;;;23.80;59.30;;;;;;5243803;28;20055;-52
2021/06/16 03:42:25;;;;;;;7.25;3.45;;;23.80;59.40;;;;;;5250264;28;20040;-53
2021/06/16 03:45:02;;;;;;;10.10;3.38;;;23.80;59.50;;;;;;5242166;28;20051;-51
2021/06/16 03:47:37;;;;;;;4.97;3.35;;;23.80;59.60;;;;;;5231877;28;20051;-52
2021/06/16 03:50:16;;;;;;;4.90;3.08;;;23.80;59.60;;;;;;5244192;28;20059;-53
2021/06/16 03:52:49;;;;;;;4.80;2.85;;;23.80;59.70;;;;;;5240964;28;20063;-49
2021/06/16 03:55:22;;;;;;;5.10;3.30;;;23.80;59.70;;;;;;5241992;28;20517;-53
2021/06/16 03:57:55;;;;;;;6.18;3.60;;;23.80;59.80;;;;;;5245680;28;20523;-50
2021/06/16 04:00:27;;;;;;;6.03;3.70;;;23.80;59.80;;;;;;5243460;28;20083;-50
2021/06/16 04:03:01;;;;;;;5.00;3.00;;;23.70;59.80;;;;;;5241968;28;20055;-53
2021/06/16 04:05:35;;;;;;;6.10;3.55;;;23.70;59.80;;;;;;5244138;28;20044;-49
2021/06/16 04:08:09;;;;;;;4.50;3.20;;;23.80;59.90;;;;;;5227368;28;20059;-49
2021/06/16 04:10:45;;;;;;;5.13;3.13;;;23.80;59.90;;;;;;5242031;28;20052;-52
2021/06/16 04:13:18;;;;;;;4.93;3.20;;;23.80;60.00;;;;;;5229212;28;20044;-52
2021/06/16 04:15:50;;;;;;;5.30;3.10;;;23.70;59.90;;;;;;5244347;28;20075;-57
2021/06/16 04:18:24;;;;;;;8.15;3.05;;;23.70;60.00;;;;;;5235564;28;20052;-51
2021/06/16 04:21:00;;;;;;;6.47;3.00;;;23.80;60.00;;;;;;5213767;28;20067;-51
2021/06/16 04:23:34;;;;;;;7.10;3.50;;;23.80;60.10;;;;;;5236703;28;20063;-52
2021/06/16 04:26:06;;;;;;;5.28;3.10;;;23.80;60.10;;;;;;5247139;28;20063;-53
2021/06/16 04:28:38;;;;;;;4.22;3.00;;;23.70;60.10;;;;;;5247240;28;20045;-51
2021/06/16 04:31:12;;;;;;;4.65;3.00;;;23.80;60.10;;;;;;5243038;28;20059;-48
2021/06/16 04:33:45;;;;;;;7.13;3.30;;;23.80;60.20;;;;;;5230496;28;20052;-53
2021/06/16 04:36:17;;;;;;;4.32;2.95;;;23.80;60.20;;;;;;5234602;28;20607;-50
2021/06/16 04:38:50;;;;;;;4.20;3.25;;;23.80;60.20;;;;;;5220633;28;20052;-51
2021/06/16 04:41:23;;;;;;;6.47;2.97;;;23.80;60.20;;;;;;5241377;28;20044;-49
2021/06/16 04:43:55;;;;;;;8.98;3.88;;;23.80;60.30;;;;;;5241523;28;20547;-54
2021/06/16 04:46:28;;;;;;;6.07;2.88;;;23.80;60.30;;;;;;5242859;28;20115;-51
2021/06/16 04:49:01;;;;;;;5.32;2.80;;;23.80;60.40;;;;;;5245247;28;20057;-53
2021/06/16 04:51:33;;;;;;;7.60;3.20;;;23.80;60.40;;;;;;5247133;28;20060;-54
2021/06/16 04:54:10;;;;;;;4.57;3.10;;;23.80;60.50;;;;;;5253775;28;20055;-52
2021/06/16 04:56:45;;;;;;;9.15;3.45;;;23.80;60.40;;;;;;5248712;28;20420;-50
2021/06/16 04:59:17;;;;;;;6.13;3.22;;;23.80;60.50;;;;;;5247133;28;20064;-53
2021/06/16 05:01:50;;;;;;;6.13;3.38;;;23.80;60.60;;;;;;5242586;28;20059;-56
2021/06/16 05:04:23;;;;;;;8.13;3.50;;;23.80;60.60;;;;;;5249509;28;20059;-52
2021/06/16 05:06:55;;;;;;;6.60;3.00;;;23.80;60.70;;;;;;5246235;28;20056;-51
2021/06/16 05:09:28;;;;;;;15.57;4.07;;;23.80;60.60;;;;;;5241934;28;20805;-52
2021/06/16 05:12:00;;;;;;;14.02;4.00;;;23.90;60.80;;;;;;5242503;28;20074;-55
2021/06/16 05:14:33;;;;;;;18.23;4.10;;;23.90;60.80;;;;;;5231474;28;20052;-50
2021/06/16 05:17:06;;;;;;;19.02;3.90;;;23.90;60.70;;;;;;5242682;28;20086;-53
2021/06/16 05:19:39;;;;;;;8.73;3.70;;;23.90;60.60;;;;;;5243458;28;20063;-51
2021/06/16 05:22:14;;;;;;;7.28;3.10;;;23.90;60.40;;;;;;5237514;28;20052;-50
2021/06/16 05:24:47;;;;;;;10.90;3.33;;;23.90;60.30;;;;;;5238703;28;20059;-47
2021/06/16 05:27:21;;;;;;;6.03;3.15;;;23.90;60.10;;;;;;5239357;28;20075;-49
2021/06/16 05:29:54;;;;;;;10.57;3.08;;;23.90;60.00;;;;;;5235266;28;20044;-50
2021/06/16 05:32:26;;;;;;;7.40;3.30;;;23.90;59.90;;;;;;5233824;28;20075;-56
2021/06/16 05:35:00;;;;;;;15.00;3.95;;;23.90;59.90;;;;;;5238476;28;20301;-54
2021/06/16 05:37:33;;;;;;;15.15;3.47;;;23.90;59.90;;;;;;5242698;28;20051;-50
2021/06/16 05:40:06;;;;;;;19.13;4.75;;;23.90;59.80;;;;;;5233697;28;20560;-49
2021/06/16 05:42:39;;;;;;;15.65;3.97;;;23.90;59.80;;;;;;5246518;28;20048;-51
2021/06/16 05:45:12;;;;;;;7.60;3.63;;;23.90;59.80;;;;;;5241296;28;20734;-50
2021/06/16 05:47:45;;;;;;;14.82;3.58;;;23.90;59.70;;;;;;5248121;28;20055;-50
2021/06/16 05:50:18;;;;;;;14.88;3.90;;;23.90;59.60;;;;;;5241007;28;20049;-50
2021/06/16 05:52:51;;;;;;;15.55;3.75;;;23.90;59.60;;;;;;5241809;28;20044;-53
2021/06/16 05:55:23;;;;;;;9.32;3.42;;;23.90;59.60;;;;;;5245821;28;20415;-53
2021/06/16 05:57:56;;;;;;;9.60;3.58;;;23.90;59.60;;;;;;5247499;28;20044;-50
2021/06/16 06:00:28;;;;;;;8.90;3.45;;;23.90;59.60;;;;;;5246526;28;20058;-53
2021/06/16 06:03:01;;;;;;;11.77;3.97;;;24.00;59.60;;;;;;5231928;28;20527;-50
2021/06/16 06:05:34;;;;;;;8.73;3.33;;;23.90;59.50;;;;;;5241300;28;20390;-50
2021/06/16 06:08:07;;;;;;;5.00;2.47;;;24.00;59.50;;;;;;5239493;28;20530;-50
2021/06/16 06:10:40;;;;;;;8.18;3.53;;;24.00;59.40;;;;;;5243119;28;20052;-52
2021/06/16 06:13:12;;;;;;;9.25;3.28;;;24.00;59.40;;;;;;5241743;28;20074;-53
2021/06/16 06:15:44;;;;;;;5.95;3.05;;;24.00;59.40;;;;;;5238260;28;20047;-51
2021/06/16 06:18:17;;;;;;;8.32;2.97;;;24.00;59.30;;;;;;5241422;28;20044;-55
2021/06/16 06:20:50;;;;;;;6.93;3.40;;;24.00;59.20;;;;;;5241761;28;20048;-54
2021/06/16 06:23:22;;;;;;;10.00;3.20;;;24.00;59.20;;;;;;5235475;28;20052;-52
2021/06/16 06:25:55;;;;;;;5.77;3.50;;;24.00;59.20;;;;;;5241361;28;20056;-49
2021/06/16 06:28:27;;;;;;;7.50;3.42;;;24.00;59.10;;;;;;5239078;28;20302;-50
2021/06/16 06:31:00;;;;;;;8.68;3.25;;;24.00;59.10;;;;;;5241965;28;20053;-49
2021/06/16 06:33:32;;;;;;;6.20;3.20;;;24.00;59.10;;;;;;5244732;28;20536;-49
2021/06/16 06:36:05;;;;;;;4.95;2.70;;;24.00;59.00;;;;;;5244682;28;20056;-52
2021/06/16 06:38:37;;;;;;;5.05;3.03;;;24.00;59.00;;;;;;5233850;28;20055;-48
2021/06/16 06:41:12;;;;;;;11.05;3.05;;;24.00;59.00;;;;;;5228590;28;20048;-46
2021/06/16 06:43:44;;;;;;;6.50;3.05;;;24.00;59.00;;;;;;5237833;28;20143;-49
2021/06/16 06:46:19;;;;;;;12.90;3.67;;;24.00;59.00;;;;;;5240859;28;20036;-51
2021/06/16 06:48:52;;;;;;;5.60;3.03;;;24.00;59.00;;;;;;5239634;28;20799;-48
2021/06/16 06:51:24;;;;;;;8.90;3.22;;;24.00;59.00;;;;;;5246538;28;20044;-52
2021/06/16 06:53:56;;;;;;;9.50;3.03;;;24.10;59.00;;;;;;5223233;28;20047;-49
2021/06/16 06:56:29;;;;;;;5.78;3.50;;;24.00;59.00;;;;;;5241287;28;20059;-49
2021/06/16 06:59:01;;;;;;;6.55;2.60;;;24.00;58.90;;;;;;5240518;28;20043;-47
2021/06/16 07:01:34;;;;;;;7.38;3.40;;;24.10;59.00;;;;;;5239604;28;20049;-56
2021/06/16 07:04:07;;;;;;;10.17;3.63;;;24.00;58.90;;;;;;5240242;28;20052;-52
2021/06/16 07:06:39;;;;;;;8.75;3.22;;;24.10;59.00;;;;;;5243100;28;20044;-51
2021/06/16 07:09:12;;;;;;;7.80;3.08;;;24.00;59.00;;;;;;5242919;28;20048;-55
2021/06/16 07:11:45;;;;;;;7.07;3.13;;;24.10;59.10;;;;;;5234596;28;20463;-50
2021/06/16 07:14:17;;;;;;;7.18;3.30;;;24.00;59.10;;;;;;5245229;28;20067;-52
2021/06/16 07:16:50;;;;;;;10.67;3.10;;;24.00;59.10;;;;;;5250133;28;20059;-53
2021/06/16 07:19:23;;;;;;;7.38;3.70;;;24.10;59.10;;;;;;5250201;28;20313;-49
2021/06/16 07:21:55;;;;;;;5.75;3.40;;;24.10;59.20;;;;;;5251454;28;20055;-51
2021/06/16 07:24:28;;;;;;;8.65;3.20;;;24.10;59.20;;;;;;5250128;28;20052;-48
2021/06/16 07:27:00;;;;;;;8.50;3.27;;;24.10;59.20;;;;;;5253894;28;20610;-52
2021/06/16 07:29:33;;;;;;;3.88;2.67;;;24.00;59.20;;;;;;5243417;28;20055;-50
2021/06/16 07:32:07;;;;;;;6.22;3.08;;;24.10;59.30;;;;;;5231041;28;20464;-54
2021/06/16 07:34:39;;;;;;;7.30;3.35;;;24.10;59.30;;;;;;5245978;28;20048;-52
2021/06/16 07:37:12;;;;;;;6.35;3.38;;;24.10;59.30;;;;;;5245836;28;20059;-51
2021/06/16 07:39:45;;;;;;;4.22;3.10;;;24.10;59.30;;;;;;5227585;28;25355;-50
2021/06/16 07:42:17;;;;;;;3.58;2.72;;;24.10;59.30;;;;;;5241593;28;20052;-50
2021/06/16 07:44:50;;;;;;;5.55;2.92;;;24.10;59.30;;;;;;5239384;28;20055;-49
2021/06/16 07:47:22;;;;;;;10.38;3.50;;;24.10;59.40;;;;;;5237849;28;20052;-51
2021/06/16 07:49:55;;;;;;;7.10;3.50;;;24.10;59.40;;;;;;5242886;28;20048;-49
2021/06/16 07:52:28;;;;;;;10.77;3.75;;;24.10;59.40;;;;;;5240957;28;20048;-47
2021/06/16 07:55:00;;;;;;;7.13;3.27;;;24.10;59.50;;;;;;5246629;28;20056;-54
2021/06/16 07:57:33;;;;;;;9.40;3.88;;;24.10;59.60;;;;;;5244971;28;20063;-52
2021/06/16 08:00:07;;;;;;;16.23;6.77;;;24.10;59.60;;;;;;5246499;28;20054;-47
2021/06/16 08:02:47;;;;;;;19.83;6.90;;;24.10;59.90;;;;;;5246087;28;20408;-47
2021/06/16 08:05:19;;;;;;;16.33;5.57;;;24.10;59.80;;;;;;5246078;28;20040;-51
2021/06/16 08:07:51;;;;;;;14.07;5.60;;;24.10;60.40;;;;;;5245185;28;20056;-49
2021/06/16 08:10:24;;;;;;;12.00;5.35;;;24.20;59.70;;;;;;5242794;28;20059;-49
2021/06/16 08:12:57;;;;;;;10.17;4.43;;;24.20;59.70;;;;;;5243885;28;20411;-48
2021/06/16 08:15:32;;;;;;;12.98;5.35;;;24.10;59.50;;;;;;5224945;28;20512;-48
2021/06/16 08:18:06;;;;;;;15.32;5.40;;;24.10;59.50;;;;;;5237434;28;20055;-49
2021/06/16 08:20:39;;;;;;;15.57;5.07;;;24.10;59.60;;;;;;5241774;28;20044;-51
2021/06/16 08:23:12;;;;;;;15.27;5.25;;;24.20;59.70;;;;;;5222247;28;20048;-55
2021/06/16 08:25:44;;;;;;;13.07;4.97;;;24.20;59.90;;;;;;5240010;28;20060;-47
2021/06/16 08:28:17;;;;;;;8.40;4.25;;;24.10;59.80;;;;;;5238839;28;20053;-50
2021/06/16 08:30:49;;;;;;;13.98;5.07;;;24.10;59.90;;;;;;5238214;28;20047;-49
2021/06/16 08:33:22;;;;;;;9.97;4.40;;;24.20;60.00;;;;;;5245106;28;20060;-51
2021/06/16 08:35:55;;;;;;;14.20;5.43;;;24.20;60.00;;;;;;5230022;28;20052;-52
2021/06/16 08:38:27;;;;;;;12.17;5.17;;;24.20;60.00;;;;;;5244352;28;20052;-48
2021/06/16 08:41:06;;;;;;;9.63;4.13;;;24.20;59.90;;;;;;5242300;28;20055;-47
2021/06/16 08:43:41;;;;;;;9.60;4.40;;;24.20;59.90;;;;;;5241664;28;20739;-50
2021/06/16 08:46:15;;;;;;;12.25;5.22;;;24.20;60.00;;;;;;5240420;28;20044;-52
2021/06/16 08:48:49;;;;;;;11.07;4.93;;;24.20;59.90;;;;;;5241114;28;20428;-51
2021/06/16 08:51:22;;;;;;;9.57;4.25;;;24.20;59.90;;;;;;5240092;28;20048;-47
2021/06/16 08:53:54;;;;;;;9.65;4.25;;;24.20;59.90;;;;;;5238584;28;20056;-52
2021/06/16 08:56:27;;;;;;;9.63;4.15;;;24.20;59.90;;;;;;5238744;28;20492;-52
2021/06/16 08:59:00;;;;;;;6.83;3.97;;;24.20;59.90;;;;;;5242127;28;20056;-49
2021/06/16 09:01:32;;;;;;;7.00;4.07;;;24.20;59.90;;;;;;5236825;28;20048;-49
2021/06/16 09:04:05;;;;;;;8.48;4.35;;;24.20;59.90;;;;;;5234945;28;20079;-53
2021/06/16 09:06:37;;;;;;;8.82;3.88;;;24.20;59.80;;;;;;5237174;28;20059;-53
2021/06/16 09:09:10;;;;;;;10.60;4.17;;;24.30;59.90;;;;;;5231527;28;20052;-48
2021/06/16 09:11:43;;;;;;;10.45;4.10;;;24.20;59.80;;;;;;5250140;28;20045;-51
2021/06/16 09:14:22;;;;;;;9.45;4.15;;;24.20;59.80;;;;;;5245929;28;20047;-50
2021/06/16 09:17:01;;;;;;;5.60;3.90;;;24.20;60.40;;;;;;5250402;28;20055;-47
2021/06/16 09:19:37;;;;;;;9.65;4.15;;;24.30;59.80;;;;;;5257853;28;20129;-49
2021/06/16 09:22:10;;;;;;;8.27;4.40;;;24.20;59.70;;;;;;5256159;28;20422;-52
2021/06/16 09:24:51;;;;;;;10.25;4.40;;;24.30;59.80;;;;;;5257786;28;20040;-50
2021/06/16 09:27:47;;;;;;;10.48;3.92;;;24.20;59.70;;;;;;5251459;28;20051;-53
2021/06/16 09:30:23;;;;;;;9.15;3.50;;;24.20;59.70;;;;;;5258792;28;20063;-47
2021/06/16 09:32:58;;;;;;;10.95;3.80;;;24.30;59.80;;;;;;5232483;28;20060;-48
2021/06/16 09:35:34;;;;;;;5.65;3.47;;;24.30;59.80;;;;;;5220457;28;20055;-47
2021/06/16 09:38:12;;;;;;;8.40;3.50;;;24.30;59.80;;;;;;5249792;28;20051;-49
2021/06/16 09:40:45;;;;;;;7.82;3.58;;;24.30;59.80;;;;;;5254364;28;20056;-51
2021/06/16 09:43:20;;;;;;;5.47;3.70;;;24.30;59.70;;;;;;5251708;28;20056;-56
2021/06/16 09:45:57;;;;;;;10.57;3.95;;;24.30;59.70;;;;;;5245364;28;20587;-49
2021/06/16 09:48:34;;;;;;;5.40;3.33;;;24.30;59.70;;;;;;5250181;28;20059;-49
2021/06/16 09:51:33;;;;;;;6.28;3.95;;;24.30;59.70;;;;;;5235591;28;20048;-46
2021/06/16 09:54:15;;;;;;;11.30;3.38;;;24.30;59.60;;;;;;5237768;28;22867;-51
2021/06/16 09:56:58;;;;;;;7.90;3.63;;;24.30;59.60;;;;;;5250025;28;20431;-50
2021/06/16 09:59:43;;;;;;;6.70;3.67;;;24.30;59.60;;;;;;5248646;28;20049;-49
2021/06/16 10:02:24;;;;;;;5.45;3.55;;;24.30;59.60;;;;;;5243989;28;20036;-46
2021/06/16 10:04:59;;;;;;;12.85;3.67;;;24.30;59.60;;;;;;5246332;28;20420;-53
2021/06/16 10:07:33;;;;;;;6.90;3.70;;;24.30;60.30;;;;;;5242349;28;20044;-47
2021/06/16 10:10:08;;;;;;;6.10;3.60;;;24.30;59.60;;;;;;5247555;28;20496;-51
2021/06/16 10:12:42;;;;;;;7.80;3.55;;;24.30;59.50;;;;;;5239822;28;20048;-49
2021/06/16 10:15:18;;;;;;;7.35;3.63;;;24.30;59.40;;;;;;5245218;28;20452;-51
2021/06/16 10:17:51;;;;;;;6.25;3.25;;;24.40;59.40;;;;;;5230046;28;20060;-50
2021/06/16 10:20:26;;;;;;;5.18;3.53;;;24.40;59.30;;;;;;5246243;28;20059;-55
2021/06/16 10:22:59;;;;;;;7.30;3.40;;;24.40;59.30;;;;;;5209480;28;20126;-49
2021/06/16 10:25:32;;;;;;;8.85;3.40;;;24.40;59.20;;;;;;5247118;28;20079;-48
2021/06/16 10:28:06;;;;;;;5.57;3.20;;;24.40;59.10;;;;;;5246827;28;20051;-50
2021/06/16 10:30:43;;;;;;;7.18;3.78;;;24.40;59.00;;;;;;5247650;28;20048;-53
2021/06/16 10:33:42;;;;;;;6.78;3.22;;;24.40;59.00;;;;;;5245958;28;20052;-49
2021/06/16 10:36:17;;;;;;;4.78;3.55;;;24.40;58.90;;;;;;5240322;28;20052;-49
2021/06/16 10:39:01;;;;;;;4.75;3.30;;;24.40;58.80;;;;;;5243799;28;20056;-48
2021/06/16 10:41:48;;;;;;;5.07;3.20;;;24.40;58.80;;;;;;5242695;28;20060;-53
2021/06/16 10:44:23;;;;;;;5.43;3.28;;;24.50;58.80;;;;;;5245827;28;20051;-55
2021/06/16 10:46:59;;;;;;;5.20;3.47;;;24.50;58.70;;;;;;5225143;28;20393;-54
2021/06/16 10:49:50;;;;;;;5.85;2.95;;;24.50;58.60;;;;;;5233751;28;20082;-53
2021/06/16 10:52:26;;;;;;;3.75;2.92;;;24.50;58.60;;;;;;5244341;28;20048;-50
2021/06/16 10:55:04;;;;;;;5.88;3.10;;;24.50;58.50;;;;;;5247136;28;20440;-49
2021/06/16 10:57:37;;;;;;;6.25;3.22;;;24.50;58.40;;;;;;5250750;28;20048;-48
2021/06/16 11:00:14;;;;;;;4.35;3.28;;;24.50;58.40;;;;;;5225259;28;20668;-47
2021/06/16 11:02:46;;;;;;;4.93;2.92;;;24.50;58.30;;;;;;5230288;28;20059;-48
2021/06/16 11:05:26;;;;;;;6.65;2.90;;;24.50;58.20;;;;;;5245827;28;20048;-50
2021/06/16 11:08:03;;;;;;;11.77;4.47;;;24.50;58.20;;;;;;5226292;28;20051;-50
2021/06/16 11:10:52;;;;;;;5.47;3.15;;;24.50;58.10;;;;;;5242640;28;20055;-52
2021/06/16 11:13:42;;;;;;;6.60;2.92;;;24.50;57.90;;;;;;5237196;28;20048;-55
2021/06/16 11:16:37;;;;;;;5.38;3.10;;;24.50;57.70;;;;;;5238662;28;20378;-51
2021/06/16 11:19:35;;;;;;;5.47;3.20;;;24.60;57.70;;;;;;5240981;28;20059;-50
2021/06/16 11:22:07;;;;;;;6.78;3.17;;;24.60;57.40;;;;;;5243196;28;20057;-48
2021/06/16 11:25:21;;;;;;;5.20;3.20;;;24.60;57.20;;;;;;5242552;28;20048;-46
2021/06/16 11:27:54;;;;;;;3.28;2.70;;;24.60;57.00;;;;;;5242926;28;20450;-52
2021/06/16 11:30:33;;;;;;;5.65;3.50;;;24.60;57.00;;;;;;5241871;28;20052;-47
2021/06/16 11:33:21;;;;;;;6.05;2.85;;;24.60;56.90;;;;;;5238208;28;20052;-56
2021/06/16 11:36:08;;;;;;;3.10;2.45;;;24.60;56.80;;;;;;5239067;28;20469;-49
2021/06/16 11:38:59;;;;;;;9.60;2.70;;;24.60;56.80;;;;;;5238894;28;21587;-47
2021/06/16 11:41:31;;;;;;;4.00;2.38;;;24.60;56.80;;;;;;5237680;28;20243;-56
2021/06/16 11:44:11;;;;;;;3.33;2.33;;;24.60;56.80;;;;;;5238238;28;20062;-52
2021/06/16 11:46:45;;;;;;;3.90;2.80;;;24.60;56.80;;;;;;5240743;28;20052;-50
2021/06/16 11:49:25;;;;;;;4.10;2.53;;;24.60;56.80;;;;;;5242224;28;20053;-47
2021/06/16 11:51:59;;;;;;;4.45;2.50;;;24.60;56.70;;;;;;5226054;28;20048;-52
2021/06/16 11:54:35;;;;;;;2.80;2.22;;;24.60;56.60;;;;;;5244870;28;20059;-47
2021/06/16 11:57:14;;;;;;;12.93;3.42;;;24.70;56.50;;;;;;5205393;28;20044;-50
2021/06/16 11:59:52;;;;;;;6.45;3.13;;;24.60;56.50;;;;;;5241134;28;20062;-48
2021/06/16 12:02:29;;;;;;;3.63;2.47;;;24.70;56.60;;;;;;5248113;28;20067;-48
2021/06/16 12:05:09;;;;;;;9.57;2.90;;;24.70;56.60;;;;;;5224317;28;20044;-47
2021/06/16 12:07:45;;;;;;;4.68;2.63;;;24.70;56.70;;;;;;5244783;28;20048;-50
2021/06/16 12:10:27;;;;;;;8.98;2.75;;;24.80;56.80;;;;;;5226658;28;20055;-49
2021/06/16 12:13:05;;;;;;;7.22;2.70;;;24.80;57.60;;;;;;5243631;28;20063;-46
2021/06/16 12:15:40;;;;;;;4.15;2.38;;;24.80;57.00;;;;;;5247947;28;20044;-49
2021/06/16 12:18:15;;;;;;;4.18;2.83;;;24.80;57.80;;;;;;5248227;28;20416;-52
2021/06/16 12:20:51;;;;;;;4.65;2.30;;;24.80;57.20;;;;;;5244413;28;20122;-51
2021/06/16 12:23:35;;;;;;;6.25;2.65;;;24.80;57.20;;;;;;5241649;28;20048;-50
2021/06/16 12:26:24;;;;;;;6.22;2.65;;;24.80;57.30;;;;;;5245526;28;20044;-47
2021/06/16 12:28:57;;;;;;;4.80;2.83;;;24.80;57.30;;;;;;5247478;28;20066;-46
2021/06/16 12:31:35;;;;;;;;;;;24.90;57.50;;;;;;5246121;28;20047;-49
2021/06/16 12:37:16;;;;;;;10.18;3.20;;;24.80;57.50;;;;;;5231828;28;20060;-54
2021/06/16 12:39:53;;;;;;;5.18;2.60;;;24.80;57.50;;;;;;5238574;28;20055;-52
2021/06/16 12:42:44;;;;;;;5.22;2.38;;;24.80;57.40;;;;;;5234043;28;20045;-52
2021/06/16 12:45:36;;;;;;;4.38;2.50;;;24.80;57.10;;;;;;5212412;28;20412;-48
2021/06/16 12:48:23;;;;;;;5.07;2.25;;;24.80;56.90;;;;;;5245340;28;20488;-51
2021/06/16 12:50:58;;;;;;;11.50;3.20;;;24.80;56.80;;;;;;5243648;28;20055;-47
2021/06/16 12:53:39;;;;;;;5.10;2.63;;;24.80;56.50;;;;;;5242157;28;20051;-49
2021/06/16 12:56:15;;;;;;;7.72;2.83;;;24.90;56.60;;;;;;5246411;28;20652;-46
2021/06/16 12:58:48;;;;;;;5.18;2.55;;;24.90;56.90;;;;;;5242689;28;20055;-52
2021/06/16 13:01:21;;;;;;;10.73;2.20;;;25.00;56.30;;;;;;5244908;28;20054;-51
2021/06/16 13:03:54;;;;;;;7.35;2.90;;;25.00;56.40;;;;;;5223927;28;20294;-51
2021/06/16 13:06:29;;;;;;;13.23;2.92;;;25.00;56.50;;;;;;5245838;28;20417;-47
2021/06/16 13:09:03;;;;;;;7.07;2.67;;;25.00;56.60;;;;;;5242559;28;20044;-48
2021/06/16 13:11:36;;;;;;;5.95;2.60;;;25.00;56.60;;;;;;5225686;28;20043;-49
2021/06/16 13:14:19;;;;;;;8.65;2.60;;;25.00;56.60;;;;;;5246943;28;20056;-46
2021/06/16 13:17:10;;;;;;;4.43;2.50;;;25.10;56.80;;;;;;5238641;28;20052;-48
2021/06/16 13:19:56;;;;;;;4.88;2.60;;;25.10;56.80;;;;;;5234687;28;20074;-49
2021/06/16 13:22:34;;;;;;;5.40;2.55;;;25.10;56.90;;;;;;5206385;28;20416;-48
2021/06/16 13:25:21;;;;;;;4.53;2.75;;;25.10;56.90;;;;;;5241468;28;20575;-50
2021/06/16 13:28:00;;;;;;;11.88;2.85;;;25.10;57.00;;;;;;5248750;28;20056;-49
2021/06/16 13:30:37;;;;;;;5.93;2.25;;;25.10;57.00;;;;;;5247322;28;20067;-51
2021/06/16 13:33:13;;;;;;;4.38;2.63;;;25.10;57.10;;;;;;5225097;28;20048;-55